createdAt,value
2019-05-22T00:01:12.410Z,101152.33
2019-05-22T00:04:14.398Z,101145.96
2019-05-22T00:06:47.881Z,101144.95
2019-05-22T00:09:35.027Z,101147.11
2019-05-22T00:12:12.065Z,101140.67
2019-05-22T00:15:04.660Z,101137.00
2019-05-22T00:17:38.265Z,101145.19
2019-05-22T00:20:14.690Z,101152.22
2019-05-22T00:22:48.751Z,101138.16
2019-05-22T00:25:26.947Z,101144.14
2019-05-22T00:28:01.106Z,101143.98
2019-05-22T00:30:48.142Z,101142.63
2019-05-22T00:33:39.543Z,101141.89
2019-05-22T00:36:14.327Z,101145.36
2019-05-22T00:38:48.005Z,101147.41
2019-05-22T00:41:23.485Z,101143.47
2019-05-22T00:43:57.392Z,101146.70
2019-05-22T00:46:30.625Z,101143.10
2019-05-22T00:49:07.328Z,101148.72
2019-05-22T00:52:14.691Z,101141.25
2019-05-22T00:54:57.430Z,101149.39
2019-05-22T00:57:36.282Z,101157.31
2019-05-22T01:00:21.979Z,101159.80
2019-05-22T01:03:19.469Z,101161.38
2019-05-22T01:05:55.056Z,101161.81
2019-05-22T01:08:29.102Z,101163.16
2019-05-22T01:11:04.249Z,101160.16
2019-05-22T01:13:38.125Z,101167.57
2019-05-22T01:16:21.755Z,101172.80
2019-05-22T01:18:57.792Z,101179.15
2019-05-22T01:21:50.632Z,101181.98
2019-05-22T01:24:36.174Z,101180.64
2019-05-22T01:27:09.842Z,101182.15
2019-05-22T01:29:43.922Z,101181.64
2019-05-22T01:32:24.664Z,101186.95
2019-05-22T01:35:20.352Z,101187.51
2019-05-22T01:37:58.124Z,101181.08
2019-05-22T01:40:53.772Z,101183.53
2019-05-22T01:43:28.708Z,101188.88
2019-05-22T01:46:03.378Z,101184.10
2019-05-22T01:48:46.191Z,101180.56
2019-05-22T01:51:28.696Z,101183.42
2019-05-22T01:54:04.080Z,101189.92
2019-05-22T01:56:39.744Z,101192.55
2019-05-22T01:59:16.125Z,101190.39
2019-05-22T02:01:59.344Z,101196.23
2019-05-22T02:04:34.266Z,101206.03
2019-05-22T02:07:09.879Z,101200.16
2019-05-22T02:09:46.130Z,101196.55
2019-05-22T02:12:36.654Z,101204.04
2019-05-22T02:15:11.168Z,101185.20
2019-05-22T02:17:45.394Z,101185.47
2019-05-22T02:20:19.798Z,101188.94
2019-05-22T02:22:54.768Z,101184.43
2019-05-22T02:25:38.608Z,101191.22
2019-05-22T02:28:15.260Z,101194.30
2019-05-22T02:30:49.537Z,101190.42
2019-05-22T02:33:25.043Z,101193.63
2019-05-22T02:36:21.724Z,101195.04
2019-05-22T02:40:22.749Z,101193.85
2019-05-22T02:42:57.104Z,101194.78
2019-05-22T02:45:30.551Z,101195.82
2019-05-22T02:48:06.420Z,101193.85
2019-05-22T02:50:50.325Z,101185.56
2019-05-22T02:53:40.362Z,101190.34
2019-05-22T02:56:14.109Z,101191.91
2019-05-22T02:58:51.969Z,101198.88
2019-05-22T03:01:25.422Z,101202.84
2019-05-22T03:03:59.370Z,101205.14
2019-05-22T03:06:34.874Z,101202.23
2019-05-22T03:09:23.659Z,101211.58
2019-05-22T03:12:04.242Z,101216.37
2019-05-22T03:14:40.066Z,101225.11
2019-05-22T03:17:27.649Z,101228.41
2019-05-22T03:20:04.462Z,101232.45
2019-05-22T03:22:44.554Z,101229.46
2019-05-22T03:25:18.237Z,101236.19
2019-05-22T03:28:02.255Z,101236.41
2019-05-22T03:30:45.444Z,101245.91
2019-05-22T03:33:19.081Z,101254.34
2019-05-22T03:36:01.577Z,101253.45
2019-05-22T03:38:47.981Z,101258.09
2019-05-22T03:41:30.545Z,101255.03
2019-05-22T03:44:05.389Z,101259.66
2019-05-22T03:46:44.774Z,101266.38
2019-05-22T03:49:30.000Z,101275.38
2019-05-22T03:52:06.410Z,101271.10
2019-05-22T03:54:40.617Z,101276.80
2019-05-22T03:57:25.877Z,101279.99
2019-05-22T04:00:02.329Z,101284.87
2019-05-22T04:02:36.455Z,101283.91
2019-05-22T04:05:10.951Z,101284.65
2019-05-22T04:07:57.518Z,101277.03
2019-05-22T04:10:34.639Z,101284.65
2019-05-22T04:13:19.380Z,101283.91
2019-05-22T04:15:53.105Z,101283.95
2019-05-22T04:18:28.552Z,101290.03
2019-05-22T04:21:11.214Z,101293.19
2019-05-22T04:23:45.299Z,101291.37
2019-05-22T04:26:28.928Z,101290.18
2019-05-22T04:29:03.707Z,101296.91
2019-05-22T04:31:52.512Z,101290.03
2019-05-22T04:34:26.470Z,101306.18
2019-05-22T04:37:13.793Z,101306.77
2019-05-22T04:40:16.914Z,101301.09
2019-05-22T04:42:51.423Z,101310.64
2019-05-22T04:45:34.921Z,101312.76
2019-05-22T04:48:08.957Z,101322.48
2019-05-22T04:50:42.542Z,101322.18
2019-05-22T04:53:16.925Z,101318.22
2019-05-22T04:55:50.677Z,101324.11
2019-05-22T04:58:30.532Z,101329.22
2019-05-22T05:01:03.915Z,101325.75
2019-05-22T05:03:48.150Z,101329.06
2019-05-22T05:06:23.985Z,101332.32
2019-05-22T05:09:12.238Z,101331.06
2019-05-22T05:11:45.542Z,101340.70
2019-05-22T05:14:31.990Z,101334.44
2019-05-22T05:17:08.612Z,101335.02
2019-05-22T05:19:42.216Z,101334.63
2019-05-22T05:22:19.030Z,101341.35
2019-05-22T05:24:55.568Z,101342.58
2019-05-22T05:27:27.578Z,101344.58
2019-05-22T05:30:10.199Z,101341.66
2019-05-22T05:32:52.831Z,101347.80
2019-05-22T05:35:26.935Z,101356.69
2019-05-22T05:38:11.727Z,101356.23
2019-05-22T05:40:46.302Z,101354.77
2019-05-22T05:43:29.179Z,101361.59
2019-05-22T05:46:03.472Z,101366.13
2019-05-22T05:48:37.060Z,101365.90
2019-05-22T05:51:29.422Z,101364.36
2019-05-22T05:54:12.402Z,101374.96
2019-05-22T05:56:49.796Z,101375.63
2019-05-22T05:59:24.653Z,101378.16
2019-05-22T06:02:09.360Z,101375.69
2019-05-22T06:04:43.202Z,101380.02
2019-05-22T06:07:24.265Z,101387.55
2019-05-22T06:10:34.471Z,101387.35
2019-05-22T06:13:07.867Z,101395.96
2019-05-22T06:16:24.350Z,101390.34
2019-05-22T06:18:58.691Z,101395.87
2019-05-22T06:21:33.591Z,101404.59
2019-05-22T06:24:28.074Z,101402.75
2019-05-22T06:27:19.405Z,101403.48
2019-05-22T06:29:57.339Z,101407.17
2019-05-22T06:33:27.460Z,101409.48
2019-05-22T06:36:04.691Z,101411.55
2019-05-22T06:39:13.839Z,101416.37
2019-05-22T06:41:48.770Z,101410.98
2019-05-22T06:44:39.046Z,101418.55
2019-05-22T06:47:25.829Z,101417.74
2019-05-22T06:49:59.504Z,101424.25
2019-05-22T06:52:32.493Z,101421.72
2019-05-22T06:55:06.926Z,101420.83
2019-05-22T06:57:40.422Z,101425.76
2019-05-22T07:00:21.658Z,101425.39
2019-05-22T07:02:55.167Z,101428.08
2019-05-22T07:05:29.347Z,101426.13
2019-05-22T07:08:03.888Z,101429.23
2019-05-22T07:10:38.232Z,101438.48
2019-05-22T07:13:22.998Z,101436.26
2019-05-22T07:15:59.274Z,101435.28
2019-05-22T07:18:33.078Z,101441.70
2019-05-22T07:21:07.985Z,101446.34
2019-05-22T07:23:42.539Z,101447.77
2019-05-22T07:26:25.364Z,101444.70
2019-05-22T07:29:17.111Z,101450.09
2019-05-22T07:32:02.973Z,101452.78
2019-05-22T07:34:36.282Z,101449.87
2019-05-22T07:37:19.476Z,101454.75
2019-05-22T07:39:53.038Z,101456.02
2019-05-22T07:42:27.419Z,101456.97
2019-05-22T07:45:00.946Z,101460.70
2019-05-22T07:47:36.999Z,101464.59
2019-05-22T07:50:11.367Z,101466.47
2019-05-22T07:52:45.663Z,101469.39
2019-05-22T07:55:29.545Z,101466.41
2019-05-22T07:58:11.931Z,101467.76
2019-05-22T08:00:57.604Z,101475.98
2019-05-22T08:03:45.608Z,101474.52
2019-05-22T08:06:19.994Z,101473.33
2019-05-22T08:09:11.378Z,101480.08
2019-05-22T08:11:45.233Z,101477.37
2019-05-22T08:14:19.700Z,101479.59
2019-05-22T08:16:54.164Z,101483.35
2019-05-22T08:19:28.429Z,101487.59
2019-05-22T08:22:07.244Z,101490.34
2019-05-22T08:24:36.286Z,101493.26
2019-05-22T08:27:10.081Z,101492.55
2019-05-22T08:29:43.535Z,101506.08
2019-05-22T08:32:18.514Z,101502.13
2019-05-22T08:34:52.002Z,101503.89
2019-05-22T08:37:30.332Z,101506.58
2019-05-22T08:40:04.914Z,101509.48
2019-05-22T08:42:48.490Z,101504.50
2019-05-22T08:45:23.466Z,101514.77
2019-05-22T08:48:09.248Z,101514.92
2019-05-22T08:50:54.565Z,101512.58
2019-05-22T08:53:28.283Z,101523.98
2019-05-22T08:56:01.922Z,101530.24
2019-05-22T08:58:36.680Z,101527.55
2019-05-22T09:01:19.005Z,101532.47
2019-05-22T09:03:52.491Z,101539.52
2019-05-22T09:06:25.729Z,101543.78
2019-05-22T09:08:59.416Z,101542.58
2019-05-22T09:11:32.557Z,101547.12
2019-05-22T09:14:05.757Z,101551.49
2019-05-22T09:16:48.451Z,101551.31
2019-05-22T09:19:22.868Z,101560.14
2019-05-22T09:21:57.247Z,101553.65
2019-05-22T09:24:47.852Z,101558.87
2019-05-22T09:27:34.526Z,101558.53
2019-05-22T09:30:17.291Z,101557.47
2019-05-22T09:32:59.859Z,101564.01
2019-05-22T09:35:33.363Z,101567.05
2019-05-22T09:38:06.652Z,101568.70
2019-05-22T09:40:39.869Z,101571.86
2019-05-22T09:43:13.359Z,101569.72
2019-05-22T09:45:46.947Z,101578.87
2019-05-22T09:48:21.188Z,101574.98
2019-05-22T09:50:55.529Z,101581.73
2019-05-22T09:53:41.641Z,101578.19
2019-05-22T09:56:15.237Z,101582.50
2019-05-22T09:58:48.500Z,101578.30
2019-05-22T10:01:30.401Z,101580.80
2019-05-22T10:04:03.580Z,101585.97
2019-05-22T10:06:37.059Z,101590.13
2019-05-22T10:09:10.640Z,101593.50
2019-05-22T10:11:44.193Z,101594.18
2019-05-22T10:14:25.994Z,101594.03
2019-05-22T10:16:59.366Z,101597.39
2019-05-22T10:19:43.869Z,101597.08
2019-05-22T10:22:20.062Z,101600.92
2019-05-22T10:25:12.099Z,101605.63
2019-05-22T10:27:39.328Z,101609.91
2019-05-22T10:30:24.803Z,101609.02
2019-05-22T10:32:57.959Z,101605.86
2019-05-22T10:35:33.547Z,101606.17
2019-05-22T10:38:07.446Z,101605.58
2019-05-22T10:40:40.973Z,101604.52
2019-05-22T10:43:14.523Z,101604.50
2019-05-22T10:45:48.465Z,101609.44
2019-05-22T10:48:21.692Z,101609.22
2019-05-22T10:50:56.074Z,101613.81
2019-05-22T10:53:39.210Z,101618.14
2019-05-22T10:56:22.962Z,101614.60
2019-05-22T10:59:07.515Z,101617.49
2019-05-22T11:01:41.891Z,101623.31
2019-05-22T11:04:19.290Z,101620.00
2019-05-22T11:07:01.891Z,101620.74
2019-05-22T11:09:48.303Z,101619.56
2019-05-22T11:12:22.060Z,101622.33
2019-05-22T11:14:56.076Z,101625.70
2019-05-22T11:17:45.797Z,101621.92
2019-05-22T11:20:19.822Z,101626.59
2019-05-22T11:22:53.908Z,101630.77
2019-05-22T11:25:27.250Z,101621.65
2019-05-22T11:28:00.828Z,101620.23
2019-05-22T11:30:34.742Z,101624.05
2019-05-22T11:33:23.041Z,101626.18
2019-05-22T11:35:56.589Z,101629.66
2019-05-22T11:38:30.220Z,101634.08
2019-05-22T11:41:04.663Z,101644.45
2019-05-22T11:43:47.156Z,101628.68
2019-05-22T11:46:22.210Z,101641.17
2019-05-22T11:48:55.844Z,101638.91
2019-05-22T11:51:29.837Z,101638.41
2019-05-22T11:54:14.805Z,101638.61
2019-05-22T11:56:48.774Z,101639.73
2019-05-22T11:59:22.785Z,101641.45
2019-05-22T12:01:56.368Z,101643.59
2019-05-22T12:04:46.554Z,101647.93
2019-05-22T12:07:21.706Z,101648.66
2019-05-22T12:10:04.416Z,101643.23
2019-05-22T12:12:38.032Z,101647.48
2019-05-22T12:15:13.233Z,101647.36
2019-05-22T12:17:46.975Z,101649.52
2019-05-22T12:20:31.197Z,101642.48
2019-05-22T12:23:04.779Z,101647.77
2019-05-22T12:25:38.848Z,101653.42
2019-05-22T12:28:21.183Z,101640.09
2019-05-22T12:30:56.337Z,101645.01
2019-05-22T12:33:31.088Z,101649.54
2019-05-22T12:36:06.556Z,101645.49
2019-05-22T12:38:40.541Z,101642.30
2019-05-22T12:41:15.673Z,101642.64
2019-05-22T12:43:49.683Z,101642.59
2019-05-22T12:46:32.943Z,101640.52
2019-05-22T12:49:09.289Z,101640.05
2019-05-22T12:51:52.506Z,101645.38
2019-05-22T12:54:46.998Z,101632.09
2019-05-22T12:57:15.969Z,101636.76
2019-05-22T12:59:49.630Z,101634.22
2019-05-22T13:02:24.651Z,101640.70
2019-05-22T13:04:59.718Z,101633.98
2019-05-22T13:07:31.621Z,101618.31
2019-05-22T13:10:07.098Z,101623.97
2019-05-22T13:12:41.178Z,101631.42
2019-05-22T13:15:30.951Z,101621.17
2019-05-22T13:18:05.877Z,101629.77
2019-05-22T13:20:44.001Z,101631.72
2019-05-22T13:23:17.584Z,101637.98
2019-05-22T13:25:51.608Z,101623.80
2019-05-22T13:28:28.597Z,101643.32
2019-05-22T13:31:02.903Z,101643.32
2019-05-22T13:33:47.683Z,101638.18
2019-05-22T13:36:21.134Z,101640.52
2019-05-22T13:38:55.525Z,101629.11
2019-05-22T13:41:46.201Z,101638.53
2019-05-22T13:44:30.045Z,101639.30
2019-05-22T13:47:04.674Z,101637.77
2019-05-22T13:49:47.449Z,101640.52
2019-05-22T13:52:30.087Z,101651.88
2019-05-22T13:55:13.703Z,101654.62
2019-05-22T13:57:57.289Z,101657.41
2019-05-22T14:00:30.961Z,101658.94
2019-05-22T14:03:04.918Z,101663.61
2019-05-22T14:05:39.228Z,101664.18
2019-05-22T14:08:14.653Z,101662.11
2019-05-22T14:10:50.193Z,101655.70
2019-05-22T14:13:25.900Z,101653.04
2019-05-22T14:16:00.090Z,101653.04
2019-05-22T14:18:33.682Z,101654.42
2019-05-22T14:21:07.259Z,101655.70
2019-05-22T14:23:41.844Z,101668.11
2019-05-22T14:26:15.658Z,101656.42
2019-05-22T14:29:01.116Z,101653.97
2019-05-22T14:31:35.073Z,101656.35
2019-05-22T14:34:17.561Z,101655.45
2019-05-22T14:36:52.101Z,101667.87
2019-05-22T14:39:26.766Z,101663.01
2019-05-22T14:42:10.534Z,101661.84
2019-05-22T14:44:43.695Z,101663.93
2019-05-22T14:47:17.206Z,101669.30
2019-05-22T14:49:51.059Z,101658.11
2019-05-22T14:52:24.642Z,101666.05
2019-05-22T14:54:58.410Z,101660.87
2019-05-22T14:57:31.809Z,101662.41
2019-05-22T15:00:06.313Z,101666.58
2019-05-22T15:02:57.241Z,101667.09
2019-05-22T15:05:28.967Z,101676.45
2019-05-22T15:08:02.498Z,101676.45
2019-05-22T15:10:36.728Z,101671.49
2019-05-22T15:13:19.613Z,101670.50
2019-05-22T15:16:01.964Z,101664.50
2019-05-22T15:18:50.563Z,101663.48
2019-05-22T15:21:25.000Z,101662.38
2019-05-22T15:23:58.304Z,101662.98
2019-05-22T15:26:40.827Z,101659.07
2019-05-22T15:29:16.529Z,101657.91
2019-05-22T15:31:54.352Z,101655.13
2019-05-22T15:34:29.554Z,101658.09
2019-05-22T15:37:06.865Z,101658.09
2019-05-22T15:39:56.880Z,101652.88
2019-05-22T15:42:49.306Z,101652.88
2019-05-22T15:45:56.636Z,101648.94
2019-05-22T15:48:34.838Z,101665.58
2019-05-22T15:51:10.061Z,101665.58
2019-05-22T15:53:46.190Z,101661.83
2019-05-22T15:56:33.176Z,101660.19
2019-05-22T15:59:20.299Z,101662.83
2019-05-22T16:01:54.086Z,101666.16
2019-05-22T16:04:41.324Z,101660.33
2019-05-22T16:07:17.920Z,101662.90
2019-05-22T16:09:54.539Z,101666.27
2019-05-22T16:12:28.312Z,101665.43
2019-05-22T16:15:05.793Z,101650.76
2019-05-22T16:17:42.610Z,101650.76
2019-05-22T16:20:29.292Z,101659.12
2019-05-22T16:23:03.626Z,101659.27
2019-05-22T16:25:40.033Z,101655.30
2019-05-22T16:28:23.406Z,101663.85
2019-05-22T16:30:57.379Z,101655.45
2019-05-22T16:33:32.585Z,101659.34
2019-05-22T16:36:07.532Z,101662.27
2019-05-22T16:38:44.057Z,101622.89
2019-05-22T16:41:17.875Z,101652.48
2019-05-22T16:43:51.876Z,101650.55
2019-05-22T16:46:28.080Z,101659.59
2019-05-22T16:49:01.704Z,101647.69
2019-05-22T16:51:35.852Z,101661.20
2019-05-22T16:54:10.010Z,101658.53
2019-05-22T16:56:42.961Z,101660.70
2019-05-22T16:59:16.520Z,101656.28
2019-05-22T17:02:00.038Z,101660.63
2019-05-22T17:04:25.706Z,101666.64
2019-05-22T17:07:11.368Z,101665.73
2019-05-22T17:09:44.752Z,101657.80
2019-05-22T17:12:20.293Z,101665.23
2019-05-22T17:14:54.898Z,101672.42
2019-05-22T17:17:39.495Z,101673.27
2019-05-22T17:20:13.433Z,101672.02
2019-05-22T17:23:01.661Z,101671.36
2019-05-22T17:25:46.196Z,101665.14
2019-05-22T17:28:19.915Z,101667.22
2019-05-22T17:31:03.942Z,101665.67
2019-05-22T17:33:37.462Z,101670.78
2019-05-22T17:36:11.814Z,101662.34
2019-05-22T17:38:46.963Z,101666.63
2019-05-22T17:41:21.610Z,101650.38
2019-05-22T17:43:55.409Z,101658.11
2019-05-22T17:46:30.290Z,101651.36
2019-05-22T17:49:04.220Z,101657.36
2019-05-22T17:51:37.844Z,101656.03
2019-05-22T17:54:11.217Z,101657.64
2019-05-22T17:56:45.632Z,101664.16
2019-05-22T17:59:31.531Z,101660.25
2019-05-22T18:02:15.517Z,101673.31
2019-05-22T18:04:50.063Z,101681.33
2019-05-22T18:07:23.902Z,101674.45
2019-05-22T18:09:57.773Z,101680.86
2019-05-22T18:12:31.405Z,101674.80
2019-05-22T18:15:05.630Z,101671.59
2019-05-22T18:17:48.726Z,101674.75
2019-05-22T18:20:42.274Z,101679.80
2019-05-22T18:23:18.929Z,101682.48
2019-05-22T18:25:52.128Z,101678.66
2019-05-22T18:28:25.887Z,101689.31
2019-05-22T18:30:59.130Z,101682.20
2019-05-22T18:33:32.414Z,101683.73
2019-05-22T18:36:06.025Z,101686.02
2019-05-22T18:38:39.784Z,101678.48
2019-05-22T18:41:13.485Z,101680.13
2019-05-22T18:43:46.660Z,101676.08
2019-05-22T18:46:21.744Z,101681.66
2019-05-22T18:49:04.370Z,101685.48
2019-05-22T18:51:46.660Z,101681.59
2019-05-22T18:54:21.127Z,101690.98
2019-05-22T18:56:54.828Z,101686.93
2019-05-22T18:59:27.833Z,101697.69
2019-05-22T19:02:09.979Z,101690.19
2019-05-22T19:04:43.781Z,101695.94
2019-05-22T19:07:22.036Z,101698.20
2019-05-22T19:10:21.337Z,101696.65
2019-05-22T19:13:10.156Z,101693.67
2019-05-22T19:15:43.858Z,101697.31
2019-05-22T19:18:17.147Z,101697.58
2019-05-22T19:20:50.795Z,101698.43
2019-05-22T19:23:23.828Z,101699.64
2019-05-22T19:26:07.555Z,101704.70
2019-05-22T19:28:44.230Z,101709.41
2019-05-22T19:31:18.367Z,101702.44
2019-05-22T19:34:04.726Z,101707.36
2019-05-22T19:36:38.029Z,101709.02
2019-05-22T19:39:23.603Z,101718.28
2019-05-22T19:42:04.243Z,101724.22
2019-05-22T19:44:46.104Z,101727.25
2019-05-22T19:47:40.153Z,101727.38
2019-05-22T19:50:33.812Z,101727.38
2019-05-22T19:53:18.830Z,101725.00
2019-05-22T19:55:48.087Z,101725.49
2019-05-22T19:58:39.277Z,101730.31
2019-05-22T20:01:13.355Z,101735.47
2019-05-22T20:03:48.590Z,101734.48
2019-05-22T20:06:31.231Z,101732.77
2019-05-22T20:09:08.006Z,101734.87
2019-05-22T20:11:41.115Z,101735.78
2019-05-22T20:14:59.427Z,101738.25
2019-05-22T20:17:29.411Z,101735.59
2019-05-22T20:20:06.619Z,101739.32
2019-05-22T20:22:42.439Z,101744.08
2019-05-22T20:25:37.288Z,101742.28
2019-05-22T20:28:15.090Z,101746.95
2019-05-22T20:31:01.836Z,101746.13
2019-05-22T20:33:56.509Z,101742.00
2019-05-22T20:37:11.394Z,101746.89
2019-05-22T20:39:44.825Z,101741.61
2019-05-22T20:42:34.721Z,101743.98
2019-05-22T20:45:27.064Z,101747.92
2019-05-22T20:48:12.635Z,101751.03
2019-05-22T20:51:11.661Z,101752.38
2019-05-22T20:53:54.368Z,101754.05
2019-05-22T20:56:41.403Z,101752.36
2019-05-22T20:59:16.049Z,101754.84
2019-05-22T21:02:00.851Z,101746.14
2019-05-22T21:04:43.329Z,101755.77
2019-05-22T21:07:20.495Z,101751.94
2019-05-22T21:10:00.210Z,101753.88
2019-05-22T21:12:35.895Z,101754.80
2019-05-22T21:15:31.604Z,101752.54
2019-05-22T21:18:23.377Z,101755.44
2019-05-22T21:20:59.859Z,101757.58
2019-05-22T21:23:33.699Z,101757.84
2019-05-22T21:26:09.762Z,101763.00
2019-05-22T21:29:01.626Z,101763.00
2019-05-22T21:31:35.950Z,101763.29
2019-05-22T21:34:09.934Z,101767.75
2019-05-22T21:36:43.331Z,101767.64
2019-05-22T21:39:16.939Z,101768.11
2019-05-22T21:41:50.569Z,101772.01
2019-05-22T21:44:23.763Z,101771.45
2019-05-22T21:47:12.980Z,101769.41
2019-05-22T21:49:58.545Z,101764.92
2019-05-22T21:52:32.962Z,101763.12
2019-05-22T21:55:20.021Z,101756.23
2019-05-22T21:58:09.802Z,101758.28
2019-05-22T22:01:14.000Z,101768.75
2019-05-22T22:03:51.776Z,101762.62
2019-05-22T22:06:42.209Z,101761.48
2019-05-22T22:09:17.662Z,101765.34
2019-05-22T22:12:00.667Z,101768.97
2019-05-22T22:14:35.818Z,101768.73
2019-05-22T22:17:10.190Z,101773.94
2019-05-22T22:19:56.235Z,101771.49
2019-05-22T22:22:41.739Z,101776.90
2019-05-22T22:25:16.847Z,101777.88
2019-05-22T22:28:00.663Z,101781.52
2019-05-22T22:30:44.405Z,101781.08
2019-05-22T22:33:22.534Z,101782.66
2019-05-22T22:35:56.969Z,101787.33
2019-05-22T22:38:42.100Z,101791.67
2019-05-22T22:41:16.763Z,101795.57
2019-05-22T22:43:50.072Z,101793.63
2019-05-22T22:46:32.411Z,101793.25
2019-05-22T22:49:06.519Z,101800.36
2019-05-22T22:51:51.584Z,101800.36
2019-05-22T22:54:26.981Z,101808.56
2019-05-22T22:57:01.266Z,101808.01
2019-05-22T22:59:44.384Z,101800.59
2019-05-22T23:02:30.840Z,101798.30
2019-05-22T23:05:07.412Z,101801.25
2019-05-22T23:07:51.177Z,101800.03
2019-05-22T23:10:25.899Z,101813.98
2019-05-22T23:12:59.096Z,101807.81
2019-05-22T23:15:32.686Z,101806.08
2019-05-22T23:18:06.723Z,101809.38
2019-05-22T23:20:39.230Z,101810.85
2019-05-22T23:23:10.767Z,101814.54
2019-05-22T23:25:45.897Z,101815.06
2019-05-22T23:28:33.634Z,101814.58
2019-05-22T23:31:06.853Z,101809.22
2019-05-22T23:33:51.709Z,101811.97
2019-05-22T23:36:25.650Z,101811.11
2019-05-22T23:39:00.674Z,101809.37
2019-05-22T23:41:37.124Z,101808.03
2019-05-22T23:44:23.389Z,101802.48
2019-05-22T23:46:57.539Z,101806.42
2019-05-22T23:49:31.715Z,101807.77
2019-05-22T23:52:20.321Z,101802.14
2019-05-22T23:54:54.083Z,101804.22
2019-05-22T23:57:28.276Z,101805.23
